createdAt,value
2022-11-16T00:00:24.597Z,101059.03
2022-11-16T00:03:07.156Z,101062.53
2022-11-16T00:05:38.035Z,101059.03
2022-11-16T00:08:08.385Z,101066.94
2022-11-16T00:10:39.091Z,101054.69
2022-11-16T00:13:09.534Z,101058.19
2022-11-16T00:15:40.038Z,101057.25
2022-11-16T00:18:11.652Z,101058.16
2022-11-16T00:20:42.340Z,101059.09
2022-11-16T00:23:12.460Z,101052.84
2022-11-16T00:25:43.006Z,101045.81
2022-11-16T00:28:13.327Z,101044.91
2022-11-16T00:30:44.218Z,101044.88
2022-11-16T00:33:17.835Z,101038.75
2022-11-16T00:35:48.459Z,101044.03
2022-11-16T00:38:18.458Z,101051.94
2022-11-16T00:40:49.268Z,101047.59
2022-11-16T00:43:19.605Z,101048.41
2022-11-16T00:45:50.286Z,101049.22
2022-11-16T00:48:22.185Z,101052.81
2022-11-16T00:50:52.675Z,101057.19
2022-11-16T00:53:24.876Z,101054.56
2022-11-16T00:55:55.704Z,101056.31
2022-11-16T00:58:26.942Z,101064.22
2022-11-16T01:01:07.838Z,101062.44
2022-11-16T01:03:40.139Z,101058.94
2022-11-16T01:06:14.995Z,101062.38
2022-11-16T01:08:46.194Z,101059.75
2022-11-16T01:11:33.964Z,101061.53
2022-11-16T01:14:06.106Z,101058.88
2022-11-16T01:16:37.245Z,101058.88
2022-11-16T01:19:09.292Z,101059.81
2022-11-16T01:21:39.853Z,101068.59
2022-11-16T01:24:10.394Z,101064.16
2022-11-16T01:26:40.934Z,101065.91
2022-11-16T01:29:11.554Z,101065.09
2022-11-16T01:31:46.463Z,101058.06
2022-11-16T01:34:18.333Z,101058.13
2022-11-16T01:36:49.264Z,101044.97
2022-11-16T01:39:20.227Z,101046.72
2022-11-16T01:41:55.984Z,101046.78
2022-11-16T01:44:57.067Z,101040.66
2022-11-16T01:47:27.845Z,101036.25
2022-11-16T01:50:07.477Z,101028.34
2022-11-16T01:52:45.486Z,101027.47
2022-11-16T01:55:16.645Z,101030.16
2022-11-16T01:57:59.560Z,101024.88
2022-11-16T02:00:30.762Z,101030.13
2022-11-16T02:03:18.868Z,101028.41
2022-11-16T02:06:07.121Z,101033.63
2022-11-16T02:09:14.266Z,101031.00
2022-11-16T02:12:15.183Z,101035.44
2022-11-16T02:15:03.922Z,101032.78
2022-11-16T02:17:44.642Z,101030.19
2022-11-16T02:20:51.454Z,101031.03
2022-11-16T02:23:57.935Z,101029.31
2022-11-16T02:27:01.504Z,101031.06
2022-11-16T02:29:37.825Z,101034.56
2022-11-16T02:32:13.749Z,101032.81
2022-11-16T02:34:49.734Z,101033.75
2022-11-16T02:37:23.226Z,101038.13
2022-11-16T02:39:59.937Z,101029.31
2022-11-16T02:42:35.779Z,101040.72
2022-11-16T02:45:14.057Z,101038.00
2022-11-16T02:47:46.429Z,101038.00
2022-11-16T02:50:20.028Z,101037.91
2022-11-16T02:52:50.649Z,101039.66
2022-11-16T02:55:21.354Z,101032.63
2022-11-16T02:57:56.633Z,101036.09
2022-11-16T03:00:35.784Z,101044.03
2022-11-16T03:03:18.084Z,101035.22
2022-11-16T03:05:53.144Z,101029.03
2022-11-16T03:08:28.332Z,101031.63
2022-11-16T03:11:22.599Z,101029.91
2022-11-16T03:13:57.362Z,101023.75
2022-11-16T03:16:35.553Z,101023.75
2022-11-16T03:19:11.381Z,101021.97
2022-11-16T03:21:46.169Z,101028.06
2022-11-16T03:24:17.821Z,101022.81
2022-11-16T03:26:56.141Z,101020.16
2022-11-16T03:29:33.000Z,101017.53
2022-11-16T03:32:17.541Z,101019.28
2022-11-16T03:34:58.631Z,101013.94
2022-11-16T03:37:31.351Z,101013.94
2022-11-16T03:40:06.809Z,101007.78
2022-11-16T03:42:39.601Z,101016.56
2022-11-16T03:45:14.261Z,101014.81
2022-11-16T03:47:46.815Z,101017.38
2022-11-16T03:50:18.084Z,101021.78
2022-11-16T03:52:48.285Z,101019.16
2022-11-16T03:55:19.216Z,101013.06
2022-11-16T03:57:50.116Z,101012.13
2022-11-16T04:00:20.724Z,101023.53
2022-11-16T04:02:52.495Z,101018.25
2022-11-16T04:05:42.434Z,101019.16
2022-11-16T04:08:35.003Z,101025.34
2022-11-16T04:11:37.764Z,101020.00
2022-11-16T04:14:29.494Z,101024.41
2022-11-16T04:17:17.106Z,101020.00
2022-11-16T04:20:06.063Z,101022.66
2022-11-16T04:23:00.629Z,101020.03
2022-11-16T04:25:35.806Z,101028.78
2022-11-16T04:28:14.976Z,101025.22
2022-11-16T04:31:10.344Z,101028.78
2022-11-16T04:34:00.047Z,101028.78
2022-11-16T04:36:49.967Z,101022.63
2022-11-16T04:39:20.617Z,101020.00
2022-11-16T04:42:08.427Z,101018.25
2022-11-16T04:44:56.569Z,101020.84
2022-11-16T04:47:29.507Z,101026.09
2022-11-16T04:50:00.244Z,101019.13
2022-11-16T04:52:33.247Z,101016.50
2022-11-16T04:55:04.018Z,101007.66
2022-11-16T04:57:34.433Z,101006.78
2022-11-16T05:00:05.793Z,101014.69
2022-11-16T05:02:38.214Z,101008.53
2022-11-16T05:05:10.616Z,101003.19
2022-11-16T05:07:45.574Z,101011.09
2022-11-16T05:10:23.149Z,101005.81
2022-11-16T05:12:55.560Z,101011.06
2022-11-16T05:15:27.276Z,101012.75
2022-11-16T05:17:58.699Z,101025.94
2022-11-16T05:20:47.119Z,101015.41
2022-11-16T05:23:35.877Z,101018.00
2022-11-16T05:26:12.436Z,101013.56
2022-11-16T05:28:42.960Z,101017.06
2022-11-16T05:31:15.798Z,101020.56
2022-11-16T05:33:46.017Z,101033.72
2022-11-16T05:36:18.178Z,101036.28
2022-11-16T05:38:52.724Z,101033.66
2022-11-16T05:41:28.309Z,101027.50
2022-11-16T05:43:59.416Z,101031.81
2022-11-16T05:46:30.149Z,101030.91
2022-11-16T05:49:03.189Z,101030.94
2022-11-16T05:51:34.100Z,101034.34
2022-11-16T05:54:07.529Z,101029.94
2022-11-16T05:56:38.552Z,101032.53
2022-11-16T05:59:12.501Z,101025.47
2022-11-16T06:01:47.793Z,101035.13
2022-11-16T06:04:24.433Z,101036.00
2022-11-16T06:06:56.969Z,101035.13
2022-11-16T06:09:33.978Z,101035.94
2022-11-16T06:12:12.196Z,101037.69
2022-11-16T06:14:43.485Z,101036.81
2022-11-16T06:17:14.987Z,101048.19
2022-11-16T06:19:46.139Z,101048.13
2022-11-16T06:22:17.126Z,101050.81
2022-11-16T06:24:48.914Z,101056.06
2022-11-16T06:27:19.567Z,101051.63
2022-11-16T06:29:49.843Z,101055.97
2022-11-16T06:32:20.727Z,101061.25
2022-11-16T06:34:51.196Z,101062.06
2022-11-16T06:37:22.016Z,101064.69
2022-11-16T06:39:53.786Z,101062.91
2022-11-16T06:42:24.480Z,101062.03
2022-11-16T06:44:56.775Z,101058.47
2022-11-16T06:47:32.096Z,101070.72
2022-11-16T06:50:03.530Z,101066.31
2022-11-16T06:52:35.218Z,101068.88
2022-11-16T06:55:08.736Z,101058.31
2022-11-16T06:57:40.905Z,101058.31
2022-11-16T07:00:13.896Z,101059.19
2022-11-16T07:02:44.528Z,101063.50
2022-11-16T07:05:18.105Z,101069.63
2022-11-16T07:07:49.969Z,101080.13
2022-11-16T07:10:22.705Z,101062.59
2022-11-16T07:12:53.326Z,101067.84
2022-11-16T07:15:24.337Z,101071.31
2022-11-16T07:17:55.355Z,101071.25
2022-11-16T07:20:25.596Z,101080.03
2022-11-16T07:22:56.436Z,101073.91
2022-11-16T07:25:28.216Z,101068.56
2022-11-16T07:28:01.018Z,101070.31
2022-11-16T07:30:32.454Z,101069.41
2022-11-16T07:33:15.556Z,101065.03
2022-11-16T07:36:05.975Z,101061.50
2022-11-16T07:38:37.140Z,101058.88
2022-11-16T07:41:13.162Z,101064.13
2022-11-16T07:43:53.371Z,101055.31
2022-11-16T07:46:46.135Z,101058.75
2022-11-16T07:49:20.500Z,101067.56
2022-11-16T07:52:11.809Z,101061.31
2022-11-16T07:55:09.431Z,101057.81
2022-11-16T07:57:41.250Z,101061.31
2022-11-16T08:00:13.270Z,101061.31
2022-11-16T08:02:58.961Z,101061.31
2022-11-16T08:05:30.175Z,101064.78
2022-11-16T08:08:00.322Z,101066.44
2022-11-16T08:10:32.514Z,101072.56
2022-11-16T08:13:04.631Z,101068.94
2022-11-16T08:15:35.398Z,101080.97
2022-11-16T08:18:09.159Z,101082.59
2022-11-16T08:20:40.759Z,101084.25
2022-11-16T08:23:11.319Z,101091.13
2022-11-16T08:25:42.081Z,101098.81
2022-11-16T08:28:15.138Z,101100.56
2022-11-16T08:30:52.500Z,101110.88
2022-11-16T08:33:26.743Z,101106.41
2022-11-16T08:35:59.810Z,101101.81
2022-11-16T08:38:31.154Z,101107.00
2022-11-16T08:41:02.099Z,101107.06
2022-11-16T08:43:34.238Z,101105.38
2022-11-16T08:46:04.763Z,101098.38
2022-11-16T08:48:35.547Z,101106.22
2022-11-16T08:51:17.625Z,101100.84
2022-11-16T08:53:57.804Z,101105.00
2022-11-16T08:56:30.531Z,101103.50
2022-11-16T08:59:02.258Z,101067.94
2022-11-16T09:01:34.229Z,101107.75
2022-11-16T09:04:04.539Z,101108.59
2022-11-16T09:06:37.330Z,101107.91
2022-11-16T09:09:07.828Z,101119.22
2022-11-16T09:11:38.678Z,101115.72
2022-11-16T09:14:10.868Z,101114.72
2022-11-16T09:16:42.048Z,101108.47
2022-11-16T09:19:12.289Z,101105.00
2022-11-16T09:21:43.018Z,101101.59
2022-11-16T09:24:14.650Z,101106.16
2022-11-16T09:26:45.418Z,101101.69
2022-11-16T09:29:17.915Z,101103.44
2022-11-16T09:31:49.289Z,101101.47
2022-11-16T09:34:19.598Z,101103.22
2022-11-16T09:36:50.569Z,101093.56
2022-11-16T09:39:31.019Z,101099.56
2022-11-16T09:42:07.016Z,101097.03
2022-11-16T09:44:50.670Z,101098.88
2022-11-16T09:47:24.573Z,101090.19
2022-11-16T09:50:02.752Z,101092.53
2022-11-16T09:52:37.238Z,101088.16
2022-11-16T09:55:26.676Z,101084.56
2022-11-16T09:58:01.741Z,101091.59
2022-11-16T10:00:34.874Z,101089.91
2022-11-16T10:03:17.710Z,101085.31
2022-11-16T10:05:55.401Z,101082.75
2022-11-16T10:09:37.940Z,101087.94
2022-11-16T10:12:18.238Z,101093.13
2022-11-16T10:15:24.008Z,101092.28
2022-11-16T10:18:43.861Z,101087.09
2022-11-16T10:21:48.328Z,101080.00
2022-11-16T10:24:33.860Z,101086.13
2022-11-16T10:27:29.228Z,101085.13
2022-11-16T10:30:09.635Z,101085.16
2022-11-16T10:32:47.419Z,101085.09
2022-11-16T10:35:27.003Z,101084.28
2022-11-16T10:38:00.648Z,101081.69
2022-11-16T10:40:39.072Z,101074.69
2022-11-16T10:43:30.327Z,101072.25
2022-11-16T10:46:07.679Z,101077.38
2022-11-16T10:48:44.074Z,101069.56
2022-11-16T10:51:15.779Z,101076.34
2022-11-16T10:53:48.708Z,101072.91
2022-11-16T10:56:26.758Z,101076.41
2022-11-16T10:58:59.891Z,101076.50
2022-11-16T11:01:36.614Z,101071.16
2022-11-16T11:04:24.919Z,101065.06
2022-11-16T11:06:56.896Z,101065.91
2022-11-16T11:09:34.906Z,101057.28
2022-11-16T11:12:34.688Z,101065.81
2022-11-16T11:15:21.428Z,101064.63
2022-11-16T11:18:14.869Z,101019.25
2022-11-16T11:20:48.741Z,101071.63
2022-11-16T11:23:21.600Z,101068.78
2022-11-16T11:25:56.020Z,101060.94
2022-11-16T11:28:28.864Z,101070.56
2022-11-16T11:31:03.453Z,101073.13
2022-11-16T11:33:36.984Z,101080.06
2022-11-16T11:36:14.610Z,101074.50
2022-11-16T11:39:00.553Z,101068.63
2022-11-16T11:41:38.709Z,101075.41
2022-11-16T11:44:17.436Z,101073.47
2022-11-16T11:49:50.458Z,101087.31
2022-11-16T11:52:28.299Z,101081.19
2022-11-16T11:54:58.728Z,101081.91
2022-11-16T11:57:33.690Z,101082.06
2022-11-16T12:00:07.381Z,101082.94
2022-11-16T12:02:57.723Z,101081.16
2022-11-16T12:05:55.508Z,101084.44
2022-11-16T12:08:52.870Z,101089.03
2022-11-16T12:11:33.307Z,101081.13
2022-11-16T12:14:20.420Z,101077.47
2022-11-16T12:16:56.709Z,101083.63
2022-11-16T12:19:59.878Z,101080.16
2022-11-16T12:22:50.908Z,101073.97
2022-11-16T12:25:26.830Z,101081.00
2022-11-16T12:28:14.310Z,101080.16
2022-11-16T12:30:59.560Z,101081.91
2022-11-16T12:33:41.810Z,101076.47
2022-11-16T12:36:25.941Z,101075.56
2022-11-16T12:39:15.515Z,101074.69
2022-11-16T12:42:11.917Z,101075.66
2022-11-16T12:45:06.680Z,101072.00
2022-11-16T12:47:51.571Z,101082.47
2022-11-16T12:50:38.778Z,101072.75
2022-11-16T12:53:32.222Z,101071.94
2022-11-16T12:56:12.698Z,101080.66
2022-11-16T12:59:05.600Z,101073.53
2022-11-16T13:02:00.188Z,101078.00
2022-11-16T13:04:43.510Z,101075.47
2022-11-16T13:07:19.067Z,101069.19
2022-11-16T13:09:54.572Z,101074.44
2022-11-16T13:12:28.579Z,101070.78
2022-11-16T13:15:01.951Z,101069.91
2022-11-16T13:17:36.131Z,101075.13
2022-11-16T13:20:26.911Z,101075.16
2022-11-16T13:23:03.999Z,101068.28
2022-11-16T13:25:42.649Z,101073.31
2022-11-16T13:28:23.621Z,101069.88
2022-11-16T13:31:03.711Z,101073.38
2022-11-16T13:33:50.690Z,101066.47
2022-11-16T13:36:46.861Z,101070.72
2022-11-16T13:39:22.577Z,101072.44
2022-11-16T13:42:07.930Z,101071.59
2022-11-16T13:44:38.571Z,101072.44
2022-11-16T13:47:22.532Z,101066.22
2022-11-16T13:49:57.682Z,101075.06
2022-11-16T13:55:39.922Z,101041.22
2022-11-16T13:58:20.800Z,101087.19
2022-11-16T14:01:03.403Z,101077.38
2022-11-16T14:03:38.956Z,101077.38
2022-11-16T14:06:28.478Z,101081.72
2022-11-16T14:09:01.692Z,101079.94
2022-11-16T14:11:44.994Z,101076.31
2022-11-16T14:14:57.192Z,101079.72
2022-11-16T14:17:51.155Z,101076.25
2022-11-16T14:20:29.462Z,101078.06
2022-11-16T14:23:22.732Z,101076.41
2022-11-16T14:26:08.063Z,101068.28
2022-11-16T14:29:03.916Z,101069.94
2022-11-16T14:31:48.842Z,101075.94
2022-11-16T14:34:21.709Z,101070.88
2022-11-16T14:36:53.552Z,101069.84
2022-11-16T14:39:38.464Z,101066.38
2022-11-16T14:42:19.133Z,101064.63
2022-11-16T14:44:50.020Z,101066.38
2022-11-16T14:47:24.455Z,101069.75
2022-11-16T14:49:55.523Z,101066.13
2022-11-16T14:52:35.706Z,101067.09
2022-11-16T14:55:08.941Z,101062.72
2022-11-16T14:57:40.963Z,101069.72
2022-11-16T15:00:13.532Z,101064.47
2022-11-16T15:02:51.363Z,101065.38
2022-11-16T15:05:24.473Z,101066.19
2022-11-16T15:07:59.544Z,101066.22
2022-11-16T15:10:31.821Z,101061.00
2022-11-16T15:13:04.645Z,101063.66
2022-11-16T15:15:35.510Z,101069.75
2022-11-16T15:18:15.394Z,101068.84
2022-11-16T15:20:51.655Z,101062.88
2022-11-16T15:23:27.657Z,101069.91
2022-11-16T15:26:04.994Z,101075.16
2022-11-16T15:28:38.428Z,101063.72
2022-11-16T15:31:10.619Z,101069.03
2022-11-16T15:33:45.583Z,101065.66
2022-11-16T15:36:31.223Z,101069.84
2022-11-16T15:39:04.204Z,101065.56
2022-11-16T15:41:36.030Z,101059.41
2022-11-16T15:44:14.799Z,101064.69
2022-11-16T15:46:51.139Z,101064.59
2022-11-16T15:49:32.857Z,101059.38
2022-11-16T15:52:04.115Z,101066.34
2022-11-16T15:54:56.016Z,101065.41
2022-11-16T15:57:27.592Z,101068.16
2022-11-16T16:00:00.812Z,101070.75
2022-11-16T16:02:34.293Z,101067.03
2022-11-16T16:05:06.901Z,101060.97
2022-11-16T16:07:41.977Z,101061.63
2022-11-16T16:10:41.159Z,101065.97
2022-11-16T16:13:30.346Z,101073.16
2022-11-16T16:16:28.370Z,101066.84
2022-11-16T16:19:09.300Z,101064.25
2022-11-16T16:21:46.608Z,101065.03
2022-11-16T16:24:40.565Z,101009.31
2022-11-16T16:27:21.125Z,101062.41
2022-11-16T16:29:52.754Z,101065.91
2022-11-16T16:32:29.193Z,101066.78
2022-11-16T16:35:00.985Z,101070.28
2022-11-16T16:37:36.244Z,101065.91
2022-11-16T16:40:07.319Z,101061.63
2022-11-16T16:42:37.979Z,101061.56
2022-11-16T16:45:14.168Z,101064.19
2022-11-16T16:47:45.908Z,101071.28
2022-11-16T16:50:16.297Z,101070.41
2022-11-16T16:52:46.920Z,101078.31
2022-11-16T16:55:17.039Z,101078.13
2022-11-16T16:57:47.607Z,101084.13
2022-11-16T17:00:19.620Z,101090.31
2022-11-16T17:02:52.540Z,101091.97
2022-11-16T17:05:22.670Z,101092.75
2022-11-16T17:07:56.627Z,101106.88
2022-11-16T17:10:27.179Z,101082.28
2022-11-16T17:12:58.502Z,101091.88
2022-11-16T17:15:28.697Z,101092.75
2022-11-16T17:18:02.024Z,101089.25
2022-11-16T17:20:32.191Z,101084.91
2022-11-16T17:23:04.195Z,101090.19
2022-11-16T17:25:36.070Z,101082.28
2022-11-16T17:28:07.230Z,101091.88
2022-11-16T17:30:37.959Z,101102.34
2022-11-16T17:33:10.160Z,101093.56
2022-11-16T17:35:41.791Z,101088.47
2022-11-16T17:38:14.241Z,101098.84
2022-11-16T17:40:45.299Z,101089.28
2022-11-16T17:43:16.086Z,101085.91
2022-11-16T17:45:49.482Z,101088.50
2022-11-16T17:48:24.973Z,101090.25
2022-11-16T17:50:57.409Z,101093.63
2022-11-16T17:53:32.797Z,101091.91
2022-11-16T17:56:02.952Z,101092.75
2022-11-16T17:58:34.789Z,101089.22
2022-11-16T18:01:05.296Z,101104.13
2022-11-16T18:03:40.142Z,101100.75
2022-11-16T18:06:13.585Z,101097.25
2022-11-16T18:08:45.284Z,101098.00
2022-11-16T18:11:17.199Z,101094.47
2022-11-16T18:13:48.571Z,101099.72
2022-11-16T18:16:22.324Z,101091.91
2022-11-16T18:18:59.308Z,101105.78
2022-11-16T18:21:30.452Z,101106.56
2022-11-16T18:24:01.439Z,101104.78
2022-11-16T18:26:31.669Z,101105.63
2022-11-16T18:29:02.158Z,101116.97
2022-11-16T18:31:33.281Z,101110.88
2022-11-16T18:34:05.650Z,101105.63
2022-11-16T18:36:36.137Z,101101.31
2022-11-16T18:39:07.307Z,101097.78
2022-11-16T18:41:51.522Z,101102.97
2022-11-16T18:44:26.565Z,101096.94
2022-11-16T18:46:57.148Z,101091.69
2022-11-16T18:49:30.481Z,101099.50
2022-11-16T18:52:02.738Z,101101.28
2022-11-16T18:54:35.778Z,101102.19
2022-11-16T18:57:07.208Z,101111.00
2022-11-16T18:59:39.944Z,101107.44
2022-11-16T19:02:13.562Z,101102.16
2022-11-16T19:04:46.957Z,101103.00
2022-11-16T19:07:18.465Z,101108.38
2022-11-16T19:09:51.941Z,101107.41
2022-11-16T19:12:22.233Z,101107.50
2022-11-16T19:14:54.162Z,101105.78
2022-11-16T19:17:27.614Z,101103.06
2022-11-16T19:20:01.024Z,101066.72
2022-11-16T19:22:36.345Z,101099.50
2022-11-16T19:25:10.309Z,101103.94
2022-11-16T19:27:40.841Z,101094.31
2022-11-16T19:30:14.114Z,101096.94
2022-11-16T19:32:44.705Z,101096.06
2022-11-16T19:35:17.833Z,101097.03
2022-11-16T19:37:48.952Z,101096.09
2022-11-16T19:40:25.200Z,101096.91
2022-11-16T19:42:56.245Z,101093.41
2022-11-16T19:45:29.878Z,101092.41
2022-11-16T19:48:01.715Z,101095.03
2022-11-16T19:50:37.910Z,101092.47
2022-11-16T19:53:09.727Z,101096.06
2022-11-16T19:55:46.221Z,101097.06
2022-11-16T19:58:19.841Z,101101.47
2022-11-16T20:00:51.358Z,101103.94
2022-11-16T20:03:23.769Z,101098.69
2022-11-16T20:06:10.268Z,101099.53
2022-11-16T20:08:43.712Z,101099.50
2022-11-16T20:11:18.079Z,101101.38
2022-11-16T20:13:51.764Z,101102.16
2022-11-16T20:16:27.994Z,101098.59
2022-11-16T20:19:01.620Z,101097.81
2022-11-16T20:21:36.988Z,101097.78
2022-11-16T20:24:08.951Z,101096.94
2022-11-16T20:26:42.829Z,101104.78
2022-11-16T20:29:13.921Z,101098.66
2022-11-16T20:31:45.630Z,101105.69
2022-11-16T20:34:17.281Z,101108.25
2022-11-16T20:36:51.091Z,101107.44
2022-11-16T20:39:22.380Z,101103.19
2022-11-16T20:41:53.071Z,101104.81
2022-11-16T20:44:23.539Z,101107.44
2022-11-16T20:46:53.995Z,101112.81
2022-11-16T20:49:24.211Z,101101.56
2022-11-16T20:51:56.251Z,101101.41
2022-11-16T20:54:26.472Z,101098.88
2022-11-16T20:56:57.029Z,101104.19
2022-11-16T20:59:27.200Z,101099.00
2022-11-16T21:01:58.750Z,101050.25
2022-11-16T21:04:30.381Z,101098.16
2022-11-16T21:07:02.294Z,101102.53
2022-11-16T21:09:51.970Z,101097.22
2022-11-16T21:12:42.768Z,101103.22
2022-11-16T21:15:14.453Z,101108.56
2022-11-16T21:17:45.290Z,101109.50
2022-11-16T21:20:31.249Z,101108.50
2022-11-16T21:23:04.749Z,101104.19
2022-11-16T21:25:37.187Z,101108.50
2022-11-16T21:28:09.832Z,101109.28
2022-11-16T21:30:39.811Z,101105.78
2022-11-16T21:33:10.737Z,101097.06
2022-11-16T21:35:40.656Z,101095.38
2022-11-16T21:38:12.710Z,101097.84
2022-11-16T21:40:42.947Z,101093.59
2022-11-16T21:43:15.298Z,101093.53
2022-11-16T21:45:45.601Z,101090.19
2022-11-16T21:48:16.517Z,101095.59
2022-11-16T21:50:46.741Z,101094.50
2022-11-16T21:53:18.878Z,101096.97
2022-11-16T21:55:51.810Z,101102.31
2022-11-16T21:58:22.291Z,101098.78
2022-11-16T22:00:55.219Z,101109.13
2022-11-16T22:03:26.996Z,101108.31
2022-11-16T22:06:15.655Z,101106.56
2022-11-16T22:08:48.785Z,101113.53
2022-11-16T22:11:22.439Z,101109.13
2022-11-16T22:13:53.316Z,101104.78
2022-11-16T22:16:24.173Z,101104.72
2022-11-16T22:18:54.690Z,101117.88
2022-11-16T22:21:24.812Z,101116.97
2022-11-16T22:23:56.918Z,101122.22
2022-11-16T22:26:27.250Z,101124.75
2022-11-16T22:28:57.746Z,101118.72
2022-11-16T22:31:28.023Z,101123.94
2022-11-16T22:33:58.501Z,101130.06
2022-11-16T22:36:28.693Z,101118.66
2022-11-16T22:39:00.522Z,101116.81
2022-11-16T22:41:30.541Z,101120.31
2022-11-16T22:44:01.206Z,101115.97
2022-11-16T22:46:32.412Z,101108.91
2022-11-16T22:49:02.726Z,101106.19
2022-11-16T22:51:33.258Z,101118.38
2022-11-16T22:54:09.055Z,101114.97
2022-11-16T22:56:39.462Z,101108.78
2022-11-16T22:59:10.878Z,101107.94
2022-11-16T23:01:41.535Z,101103.34
2022-11-16T23:04:11.856Z,101099.00
2022-11-16T23:06:41.817Z,101106.94
2022-11-16T23:09:13.807Z,101102.44
2022-11-16T23:12:00.615Z,101110.34
2022-11-16T23:14:48.466Z,101106.00
2022-11-16T23:17:19.032Z,101103.34
2022-11-16T23:20:06.932Z,101107.75
2022-11-16T23:22:54.553Z,101105.13
2022-11-16T23:25:43.891Z,101106.84
2022-11-16T23:28:17.029Z,101100.84
2022-11-16T23:30:47.729Z,101101.63
2022-11-16T23:33:18.330Z,101108.59
2022-11-16T23:35:48.971Z,101101.69
2022-11-16T23:38:19.011Z,101100.66
2022-11-16T23:40:50.925Z,101090.19
2022-11-16T23:43:38.257Z,101086.75
2022-11-16T23:46:08.939Z,101089.34
2022-11-16T23:48:39.123Z,101089.41
2022-11-16T23:51:09.661Z,101092.84
2022-11-16T23:53:39.728Z,101088.47
2022-11-16T23:56:12.011Z,101084.97
2022-11-16T23:58:41.999Z,101088.44
